MV Brant Point — WYS2397 — position and weather

sailwx.info

Track history (hours):
 
Tides and Currents Weather Stations Pressure Air Temp Water Temp Dewpoint Dewpoint Depression Visibility Wind Speed Wind Dir Waves Ship Positions

MV Brant Point

Owner: HYANNIS HARBOR TOURS INC, HYANNIS, MA. More information available from US FCC via Universal Licensing System and Coast Guard Vessel Documentation Center.

Last reported at 2018-Jun-25 00:19 UTC. Time now 2018-Jun-25 04:28 UTC.
Position N 42°22' W 071°03'.

Length 41 m; draft 2 m.

Type: Passenger vessel. MMSI: 367320410.

Date/timePositionNaut miles runAvg speedWind from/ knotsBaromVisibWave heightAir tempDewpointWater temp
2018-Jun-25 00:19N 42°22' W 071°03'1 3.5
2018-Jun-25 00:00N 42°22' W 071°02'3 5.1
2018-Jun-24 23:30N 42°20' W 070°59'3 6.2
2018-Jun-24 23:00N 42°22' W 071°03'0 0.0
2018-Jun-24 22:31N 42°22' W 071°03'0 0.0
2018-Jun-24 22:01N 42°22' W 071°03'1 2.8
2018-Jun-24 21:30N 42°21' W 071°01'4 8.9
2018-Jun-24 21:00N 42°19' W 070°56'2 4.2
2018-Jun-24 20:30N 42°20' W 070°58'4 7.5
2018-Jun-24 20:00N 42°22' W 071°03'1 2.5
2018-Jun-24 19:30N 42°21' W 071°02'5 9.2
2018-Jun-24 19:01N 42°19' W 070°56'2 3.6
2018-Jun-24 18:30N 42°20' W 070°58'4 8.1
2018-Jun-24 18:01N 42°22' W 071°03'1 2.9
2018-Jun-24 17:31N 42°21' W 071°01'4 8.7
2018-Jun-24 17:00N 42°19' W 070°56'3 5.8
2018-Jun-24 16:30N 42°20' W 070°59'3 5.7
2018-Jun-24 16:00N 42°22' W 071°03'2 3.3
2018-Jun-24 15:30N 42°21' W 071°01'4 8.4
2018-Jun-24 15:00N 42°19' W 070°56'2 4.3
2018-Jun-24 14:30N 42°20' W 070°58'4 7.4
2018-Jun-24 14:00N 42°22' W 071°03'1 1.8
2018-Jun-24 13:31N 42°23' W 071°03'0 0.0
2018-Jun-24 13:00N 42°23' W 071°03'1 1.7
2018-Jun-24 12:30N 42°22' W 071°03'0 0.0
2018-Jun-24 01:47N 42°22' W 071°03'0 0.4
2018-Jun-24 01:30N 42°22' W 071°03'0 0.1
2018-Jun-24 01:00N 42°22' W 071°03'1 1.2
2018-Jun-24 00:30N 42°22' W 071°03'1 1.9
2018-Jun-24 00:00N 42°21' W 071°02'2 3.1
2018-Jun-23 23:31N 42°20' W 071°01'2 4.3
2018-Jun-23 23:00N 42°22' W 071°03'0 0.0
2018-Jun-23 22:31N 42°22' W 071°03'0 0.0
2018-Jun-23 22:01N 42°22' W 071°03'1 1.3
2018-Jun-23 21:30N 42°21' W 071°02'510.4
2018-Jun-23 21:00N 42°19' W 070°56'2 3.7
2018-Jun-23 20:30N 42°20' W 070°58'4 8.1
2018-Jun-23 20:00N 42°22' W 071°03'1 1.8
2018-Jun-23 19:30N 42°21' W 071°02'5 9.9
2018-Jun-23 19:00N 42°19' W 070°56'2 3.2
2018-Jun-23 18:30N 42°20' W 070°58'4 8.5
2018-Jun-23 18:00N 42°22' W 071°03'1 2.2
2018-Jun-23 17:30N 42°21' W 071°02'5 9.4
2018-Jun-23 17:00N 42°19' W 070°56'2 3.4
2018-Jun-23 16:30N 42°20' W 070°58'4 8.3
2018-Jun-23 16:01N 42°22' W 071°03'2 3.2
2018-Jun-23 15:31N 42°21' W 071°01'4 8.5
2018-Jun-23 15:00N 42°19' W 070°56'2 3.7
2018-Jun-23 14:30N 42°20' W 070°58'4 8.1
2018-Jun-23 14:01N 42°22' W 071°03'0 0.5
2018-Jun-23 13:30N 42°22' W 071°03'0 0.2
2018-Jun-23 13:00N 42°22' W 071°03'0 0.6
2018-Jun-23 12:31N 42°21' W 071°02'0 0.9
2018-Jun-23 12:00N 42°22' W 071°03'0 0.0
2018-Jun-23 11:30N 42°22' W 071°03'0 0.0
2018-Jun-23 02:01N 42°22' W 071°03'0 0.3
2018-Jun-23 02:00N 42°22' W 071°03'0 0.2
2018-Jun-23 01:30N 42°22' W 071°03'0 0.2
2018-Jun-23 01:00N 42°22' W 071°03'0 0.7
2018-Jun-23 00:31N 42°22' W 071°03'1 2.7
2018-Jun-23 00:00N 42°21' W 071°02'2 3.3
2018-Jun-22 23:30N 42°20' W 070°60'3 5.6
2018-Jun-22 23:00N 42°22' W 071°03'0 0.0
2018-Jun-22 22:30N 42°22' W 071°03'0 0.0
2018-Jun-22 22:00N 42°22' W 071°03'1 2.3
2018-Jun-22 21:31N 42°21' W 071°02'5 9.4
2018-Jun-22 21:00N 42°19' W 070°56'3 5.1
2018-Jun-22 20:30N 42°20' W 070°59'3 6.6
2018-Jun-22 20:00N 42°22' W 071°03'1 2.3
2018-Jun-22 19:30N 42°21' W 071°02'5 9.4
2018-Jun-22 19:00N 42°19' W 070°56'2 3.7
2018-Jun-22 18:31N 42°20' W 070°58'4 7.9
2018-Jun-22 18:00N 42°22' W 071°03'2 3.6
2018-Jun-22 17:31N 42°21' W 071°01'4 8.1
2018-Jun-22 17:01N 42°19' W 070°56'3 5.1
2018-Jun-22 16:31N 42°20' W 070°59'3 6.6
2018-Jun-22 16:00N 42°22' W 071°03'2 4.4
2018-Jun-22 15:30N 42°21' W 071°00'4 7.3
2018-Jun-22 15:01N 42°19' W 070°56'2 3.1
2018-Jun-22 14:30N 42°20' W 070°58'4 8.6
2018-Jun-22 14:01N 42°22' W 071°03'0 0.6
2018-Jun-22 13:30N 42°22' W 071°03'0 0.6
2018-Jun-22 13:00N 42°22' W 071°03'0 0.0
2018-Jun-22 01:14N 42°22' W 071°03'0 0.0
2018-Jun-22 01:00N 42°22' W 071°03'0 0.8
2018-Jun-22 00:30N 42°22' W 071°03'2 4.3
2018-Jun-22 00:00N 42°21' W 071°01'1 1.2
2018-Jun-21 23:30N 42°20' W 071°00'3 5.2
2018-Jun-21 23:00N 42°22' W 071°03'0 0.4
2018-Jun-21 22:30N 42°22' W 071°03'0 0.3
2018-Jun-21 22:00N 42°22' W 071°03'3 5.7
2018-Jun-21 21:30N 42°20' W 070°59'3 5.9
2018-Jun-21 21:00N 42°19' W 070°56'3 6.4
2018-Jun-21 20:30N 42°20' W 070°60'3 5.3
2018-Jun-21 20:00N 42°22' W 071°03'1 1.9
2018-Jun-21 19:31N 42°21' W 071°02'5 9.7
2018-Jun-21 19:00N 42°19' W 070°56'2 4.5
2018-Jun-21 18:31N 42°20' W 070°59'4 7.2
2018-Jun-21 18:00N 42°22' W 071°03'1 2.5
2018-Jun-21 17:30N 42°21' W 071°02'5 9.1
2018-Jun-21 17:00N 42°19' W 070°56'2 4.1
2018-Jun-21 16:30N 42°20' W 070°58'4 7.6
2018-Jun-21 16:00N 42°22' W 071°03'3 5.2
2018-Jun-21 15:30N 42°20' W 070°60'3 6.4
2018-Jun-21 15:01N 42°19' W 070°56'4 7.5
2018-Jun-21 14:30N 42°21' W 071°01'2 4.1
2018-Jun-21 14:01N 42°22' W 071°03'0 0.6
2018-Jun-21 13:30N 42°22' W 071°03'0 0.7
2018-Jun-21 13:00N 42°22' W 071°03'0 0.0
2018-Jun-21 01:38N 42°22' W 071°03'0 0.0
2018-Jun-21 01:30N 42°22' W 071°03'0 0.1
2018-Jun-21 01:00N 42°22' W 071°03'0 0.6
2018-Jun-21 00:30N 42°22' W 071°03'2 4.6
2018-Jun-21 00:00N 42°21' W 071°00'1 1.2
2018-Jun-20 23:30N 42°20' W 070°60'3 5.6
2018-Jun-20 23:01N 42°22' W 071°03'0 0.0
2018-Jun-20 22:30N 42°22' W 071°03'0 0.0
2018-Jun-20 22:00N 42°22' W 071°03'1 2.4
2018-Jun-20 21:31N 42°21' W 071°02'5 9.2
2018-Jun-20 21:00N 42°19' W 070°56'2 3.9
2018-Jun-20 20:30N 42°20' W 070°58'4 7.6
2018-Jun-20 20:00N 42°22' W 071°03'1 2.4
2018-Jun-20 19:30N 42°21' W 071°02'5 9.3
2018-Jun-20 19:00N 42°19' W 070°56'2 3.7
2018-Jun-20 18:30N 42°20' W 070°58'4 8.0
2018-Jun-20 18:01N 42°22' W 071°03'1 2.4
2018-Jun-20 17:30N 42°21' W 071°02'5 9.3
2018-Jun-20 17:00N 42°19' W 070°56'2 4.3
2018-Jun-20 16:30N 42°20' W 070°58'4 7.3
2018-Jun-20 16:00N 42°22' W 071°03'2 3.9
2018-Jun-20 15:30N 42°21' W 071°01'4 7.8
2018-Jun-20 15:00N 42°19' W 070°56'3 5.1
2018-Jun-20 14:30N 42°20' W 070°59'3 6.6
2018-Jun-20 14:00N 42°22' W 071°03'0 0.1
2018-Jun-20 13:31N 42°22' W 071°03'0 0.0
2018-Jun-20 13:01N 42°22' W 071°03'0 0.0
2018-Jun-20 12:31N 42°22' W 071°03'0 0.0
2018-Jun-20 01:44N 42°22' W 071°03'0 0.0
2018-Jun-20 01:30N 42°22' W 071°03'0 0.1
2018-Jun-20 01:00N 42°22' W 071°03'0 0.5
2018-Jun-20 00:30N 42°22' W 071°03'1 2.5
2018-Jun-20 00:01N 42°21' W 071°01'3 5.2
2018-Jun-19 23:30N 42°20' W 070°58'4 7.8
2018-Jun-19 23:00N 42°22' W 071°03'0 0.0
2018-Jun-19 22:31N 42°22' W 071°03'0 0.0
2018-Jun-19 22:01N 42°22' W 071°03'2 3.1
2018-Jun-19 21:30N 42°21' W 071°01'4 8.6
2018-Jun-19 21:00N 42°19' W 070°56'2 3.9
2018-Jun-19 20:30N 42°20' W 070°58'4 7.7
2018-Jun-19 20:00N 42°22' W 071°03'1 2.3
2018-Jun-19 19:30N 42°21' W 071°02'5 9.4
2018-Jun-19 19:00N 42°19' W 070°56'2 4.0
2018-Jun-19 18:30N 42°20' W 070°58'4 7.7
2018-Jun-19 18:00N 42°22' W 071°03'2 4.2
2018-Jun-19 17:30N 42°21' W 071°00'4 7.4
2018-Jun-19 17:00N 42°19' W 070°56'3 5.5
2018-Jun-19 16:30N 42°20' W 070°59'3 5.7
2018-Jun-19 16:00N 42°22' W 071°03'510.4
2018-Jun-19 15:30N 42°19' W 070°56'0 0.7
2018-Jun-19 15:01N 42°19' W 070°56'4 8.7
2018-Jun-19 14:30N 42°21' W 071°01'1 2.8
2018-Jun-19 14:00N 42°22' W 071°03'0 0.6
2018-Jun-19 13:30N 42°22' W 071°03'0 0.7
2018-Jun-19 13:00N 42°22' W 071°02'0 0.0
2018-Jun-19 12:31N 42°22' W 071°02'1 0.1
2018-Jun-19 01:38N 42°22' W 071°03'0 0.9
2018-Jun-19 01:31N 42°22' W 071°03'0 0.3
2018-Jun-19 01:00N 42°22' W 071°03'0 0.7
2018-Jun-19 00:31N 42°22' W 071°03'2 3.5
2018-Jun-19 00:01N 42°21' W 071°01'1 1.9
2018-Jun-18 23:30N 42°20' W 071°00'3 5.2
2018-Jun-18 23:00N 42°22' W 071°03'0 0.0
2018-Jun-18 22:30N 42°22' W 071°03'0 0.0
2018-Jun-18 22:01N 42°22' W 071°03'1 1.9
2018-Jun-18 21:30N 42°21' W 071°02'5 9.8
2018-Jun-18 21:01N 42°19' W 070°56'2 3.3
2018-Jun-18 20:30N 42°20' W 070°58'4 8.3
2018-Jun-18 20:00N 42°22' W 071°03'1 2.5
2018-Jun-18 19:30N 42°21' W 071°01'5 9.1
2018-Jun-18 19:00N 42°19' W 070°56'2 4.0
2018-Jun-18 18:31N 42°20' W 070°58'4 7.7
2018-Jun-18 18:00N 42°22' W 071°03'1 2.2
2018-Jun-18 17:31N 42°21' W 071°02'5 9.4
2018-Jun-18 17:00N 42°19' W 070°56'2 3.9
2018-Jun-18 16:30N 42°20' W 070°58'4 7.8
2018-Jun-18 16:00N 42°22' W 071°03'2 3.9
2018-Jun-18 15:30N 42°21' W 071°01'4 7.7
2018-Jun-18 15:00N 42°19' W 070°56'3 6.3
2018-Jun-18 14:29N 42°20' W 070°60'3 5.3
2018-Jun-18 14:00N 42°22' W 071°03'0 0.0
2018-Jun-18 13:30N 42°22' W 071°03'0 0.0
2018-Jun-18 13:00N 42°22' W 071°03'0 0.0
2018-Jun-18 01:33N 42°22' W 071°03'0 3.2
2018-Jun-18 01:30N 42°22' W 071°03'0 0.0
2018-Jun-18 01:00N 42°22' W 071°03'0 0.5
2018-Jun-18 00:31N 42°22' W 071°03'1 2.5
2018-Jun-18 00:00N 42°21' W 071°01'2 3.2
2018-Jun-17 23:30N 42°20' W 070°60'3 5.9
2018-Jun-17 23:01N 42°22' W 071°03'0 0.0
2018-Jun-17 22:30N 42°22' W 071°03'0 0.0
2018-Jun-17 22:00N 42°22' W 071°03'1 2.5
2018-Jun-17 21:30N 42°21' W 071°02'5 9.2
2018-Jun-17 21:00N 42°19' W 070°56'3 5.1
2018-Jun-17 20:31N 42°20' W 070°59'3 6.6
2018-Jun-17 20:01N 42°22' W 071°03'2 3.0
2018-Jun-17 19:30N 42°21' W 071°01'4 8.6
2018-Jun-17 19:00N 42°19' W 070°56'2 3.8
2018-Jun-17 18:31N 42°20' W 070°58'4 7.9
2018-Jun-17 18:01N 42°22' W 071°03'2 3.7
2018-Jun-17 17:31N 42°21' W 071°01'4 7.9
2018-Jun-17 17:00N 42°19' W 070°56'3 5.5
2018-Jun-17 16:30N 42°20' W 070°59'3 6.2
2018-Jun-17 16:01N 42°22' W 071°03'2 4.4
2018-Jun-17 15:30N 42°21' W 071°00'4 7.4
2018-Jun-17 15:01N 42°19' W 070°56'2 5.0
2018-Jun-17 14:30N 42°20' W 070°59'3 6.7
2018-Jun-17 14:00N 42°22' W 071°03'0 0.0
2018-Jun-17 13:30N 42°22' W 071°03'0 0.0
2018-Jun-17 01:53N 42°22' W 071°03'0 0.2
2018-Jun-17 01:30N 42°22' W 071°03'0 0.2
2018-Jun-17 01:00N 42°22' W 071°03'0 0.8
2018-Jun-17 00:30N 42°22' W 071°03'3 5.4
2018-Jun-17 00:00N 42°21' W 070°60'0 1.0
2018-Jun-16 23:31N 42°20' W 071°01'2 4.1
2018-Jun-16 23:00N 42°22' W 071°03'0 0.0
2018-Jun-16 22:30N 42°22' W 071°03'0 0.0
2018-Jun-16 22:00N 42°22' W 071°03'1 2.9
2018-Jun-16 21:30N 42°21' W 071°01'4 8.7
2018-Jun-16 21:00N 42°19' W 070°56'2 3.2
2018-Jun-16 20:30N 42°20' W 070°58'4 8.4
2018-Jun-16 20:00N 42°22' W 071°03'1 2.8
2018-Jun-16 19:30N 42°21' W 071°01'4 8.9
2018-Jun-16 19:00N 42°19' W 070°56'2 3.7
2018-Jun-16 18:30N 42°20' W 070°58'4 7.9
2018-Jun-16 18:00N 42°22' W 071°03'2 3.9
2018-Jun-16 17:30N 42°21' W 071°01'4 7.8
2018-Jun-16 17:00N 42°19' W 070°56'2 4.8
2018-Jun-16 16:30N 42°20' W 070°59'3 6.9
2018-Jun-16 16:00N 42°22' W 071°03'2 3.3
2018-Jun-16 15:30N 42°21' W 071°01'4 8.4
2018-Jun-16 15:00N 42°19' W 070°56'2 3.8
2018-Jun-16 14:30N 42°20' W 070°58'4 7.7
2018-Jun-16 14:00N 42°22' W 071°03'0 0.6
2018-Jun-16 13:31N 42°22' W 071°03'0 0.0
2018-Jun-16 00:56N 42°22' W 071°03'0 0.0
2018-Jun-16 00:31N 42°22' W 071°03'1 1.7
2018-Jun-16 00:00N 42°21' W 071°02'2 4.0
2018-Jun-15 23:30N 42°20' W 070°60'3 5.8
2018-Jun-15 23:00N 42°22' W 071°03'0 0.0
2018-Jun-15 22:30N 42°22' W 071°03'0 0.0
2018-Jun-15 22:00N 42°22' W 071°03'2 3.3
2018-Jun-15 21:30N 42°21' W 071°01'4 8.4
2018-Jun-15 21:00N 42°19' W 070°56'2 4.3
2018-Jun-15 20:31N 42°20' W 070°58'4 7.4
2018-Jun-15 20:00N 42°22' W 071°03'1 3.0
2018-Jun-15 19:30N 42°21' W 071°01'4 8.6
2018-Jun-15 19:00N 42°19' W 070°56'2 3.4
2018-Jun-15 18:30N 42°20' W 070°58'4 8.3
2018-Jun-15 18:00N 42°22' W 071°03'1 2.0
2018-Jun-15 17:31N 42°21' W 071°02'5 9.6
2018-Jun-15 17:00N 42°19' W 070°56'2 4.1
2018-Jun-15 16:31N 42°20' W 070°58'4 7.5
2018-Jun-15 16:00N 42°22' W 071°03'2 4.0
2018-Jun-15 15:30N 42°21' W 071°01'4 7.7
2018-Jun-15 15:00N 42°19' W 070°56'3 5.6
2018-Jun-15 14:30N 42°20' W 070°59'3 6.0
2018-Jun-15 14:00N 42°22' W 071°03'0 0.0
2018-Jun-15 13:30N 42°22' W 071°03'0 0.0
2018-Jun-15 01:35N 42°22' W 071°03'0 0.1
2018-Jun-15 01:31N 42°22' W 071°03'0 0.1
2018-Jun-15 01:00N 42°22' W 071°03'0 0.6
2018-Jun-15 00:30N 42°22' W 071°03'  
Track history (hours):
 
Tides and Currents Weather Stations Pressure Air Temp Water Temp Dewpoint Dewpoint Depression Visibility Wind Speed Wind Dir Waves Ship Positions

MV Brant Point

Owner: HYANNIS HARBOR TOURS INC, HYANNIS, MA. More information available from US FCC via Universal Licensing System and Coast Guard Vessel Documentation Center.

Last reported at 2018-Jun-25 00:19 UTC. Time now 2018-Jun-25 04:28 UTC.
Position N 42°22' W 071°03'.

Length 41 m; draft 2 m.

Type: Passenger vessel. MMSI: 367320410.

Date/timePositionNaut miles runAvg speedWind from/ knotsBaromVisibWave heightAir tempDewpointWater temp
2018-Jun-25 00:19N 42°22' W 071°03'1 3.5
2018-Jun-25 00:00N 42°22' W 071°02'3 5.1
2018-Jun-24 23:30N 42°20' W 070°59'3 6.2
2018-Jun-24 23:00N 42°22' W 071°03'0 0.0
2018-Jun-24 22:31N 42°22' W 071°03'0 0.0
2018-Jun-24 22:01N 42°22' W 071°03'1 2.8
2018-Jun-24 21:30N 42°21' W 071°01'4 8.9
2018-Jun-24 21:00N 42°19' W 070°56'2 4.2
2018-Jun-24 20:30N 42°20' W 070°58'4 7.5
2018-Jun-24 20:00N 42°22' W 071°03'1 2.5
2018-Jun-24 19:30N 42°21' W 071°02'5 9.2
2018-Jun-24 19:01N 42°19' W 070°56'2 3.6
2018-Jun-24 18:30N 42°20' W 070°58'4 8.1
2018-Jun-24 18:01N 42°22' W 071°03'1 2.9
2018-Jun-24 17:31N 42°21' W 071°01'4 8.7
2018-Jun-24 17:00N 42°19' W 070°56'3 5.8
2018-Jun-24 16:30N 42°20' W 070°59'3 5.7
2018-Jun-24 16:00N 42°22' W 071°03'2 3.3
2018-Jun-24 15:30N 42°21' W 071°01'4 8.4
2018-Jun-24 15:00N 42°19' W 070°56'2 4.3
2018-Jun-24 14:30N 42°20' W 070°58'4 7.4
2018-Jun-24 14:00N 42°22' W 071°03'1 1.8
2018-Jun-24 13:31N 42°23' W 071°03'0 0.0
2018-Jun-24 13:00N 42°23' W 071°03'1 1.7
2018-Jun-24 12:30N 42°22' W 071°03'0 0.0
2018-Jun-24 01:47N 42°22' W 071°03'0 0.4
2018-Jun-24 01:30N 42°22' W 071°03'0 0.1
2018-Jun-24 01:00N 42°22' W 071°03'1 1.2
2018-Jun-24 00:30N 42°22' W 071°03'1 1.9
2018-Jun-24 00:00N 42°21' W 071°02'2 3.1
2018-Jun-23 23:31N 42°20' W 071°01'2 4.3
2018-Jun-23 23:00N 42°22' W 071°03'0 0.0
2018-Jun-23 22:31N 42°22' W 071°03'0 0.0
2018-Jun-23 22:01N 42°22' W 071°03'1 1.3
2018-Jun-23 21:30N 42°21' W 071°02'510.4
2018-Jun-23 21:00N 42°19' W 070°56'2 3.7
2018-Jun-23 20:30N 42°20' W 070°58'4 8.1
2018-Jun-23 20:00N 42°22' W 071°03'1 1.8
2018-Jun-23 19:30N 42°21' W 071°02'5 9.9
2018-Jun-23 19:00N 42°19' W 070°56'2 3.2
2018-Jun-23 18:30N 42°20' W 070°58'4 8.5
2018-Jun-23 18:00N 42°22' W 071°03'1 2.2
2018-Jun-23 17:30N 42°21' W 071°02'5 9.4
2018-Jun-23 17:00N 42°19' W 070°56'2 3.4
2018-Jun-23 16:30N 42°20' W 070°58'4 8.3
2018-Jun-23 16:01N 42°22' W 071°03'2 3.2
2018-Jun-23 15:31N 42°21' W 071°01'4 8.5
2018-Jun-23 15:00N 42°19' W 070°56'2 3.7
2018-Jun-23 14:30N 42°20' W 070°58'4 8.1
2018-Jun-23 14:01N 42°22' W 071°03'0 0.5
2018-Jun-23 13:30N 42°22' W 071°03'0 0.2
2018-Jun-23 13:00N 42°22' W 071°03'0 0.6
2018-Jun-23 12:31N 42°21' W 071°02'0 0.9
2018-Jun-23 12:00N 42°22' W 071°03'0 0.0
2018-Jun-23 11:30N 42°22' W 071°03'0 0.0
2018-Jun-23 02:01N 42°22' W 071°03'0 0.3
2018-Jun-23 02:00N 42°22' W 071°03'0 0.2
2018-Jun-23 01:30N 42°22' W 071°03'0 0.2
2018-Jun-23 01:00N 42°22' W 071°03'0 0.7
2018-Jun-23 00:31N 42°22' W 071°03'1 2.7
2018-Jun-23 00:00N 42°21' W 071°02'2 3.3
2018-Jun-22 23:30N 42°20' W 070°60'3 5.6
2018-Jun-22 23:00N 42°22' W 071°03'0 0.0
2018-Jun-22 22:30N 42°22' W 071°03'0 0.0
2018-Jun-22 22:00N 42°22' W 071°03'1 2.3
2018-Jun-22 21:31N 42°21' W 071°02'5 9.4
2018-Jun-22 21:00N 42°19' W 070°56'3 5.1
2018-Jun-22 20:30N 42°20' W 070°59'3 6.6
2018-Jun-22 20:00N 42°22' W 071°03'1 2.3
2018-Jun-22 19:30N 42°21' W 071°02'5 9.4
2018-Jun-22 19:00N 42°19' W 070°56'2 3.7
2018-Jun-22 18:31N 42°20' W 070°58'4 7.9
2018-Jun-22 18:00N 42°22' W 071°03'2 3.6
2018-Jun-22 17:31N 42°21' W 071°01'4 8.1
2018-Jun-22 17:01N 42°19' W 070°56'3 5.1
2018-Jun-22 16:31N 42°20' W 070°59'3 6.6
2018-Jun-22 16:00N 42°22' W 071°03'2 4.4
2018-Jun-22 15:30N 42°21' W 071°00'4 7.3
2018-Jun-22 15:01N 42°19' W 070°56'2 3.1
2018-Jun-22 14:30N 42°20' W 070°58'4 8.6
2018-Jun-22 14:01N 42°22' W 071°03'0 0.6
2018-Jun-22 13:30N 42°22' W 071°03'0 0.6
2018-Jun-22 13:00N 42°22' W 071°03'0 0.0
2018-Jun-22 01:14N 42°22' W 071°03'0 0.0
2018-Jun-22 01:00N 42°22' W 071°03'0 0.8
2018-Jun-22 00:30N 42°22' W 071°03'2 4.3
2018-Jun-22 00:00N 42°21' W 071°01'1 1.2
2018-Jun-21 23:30N 42°20' W 071°00'3 5.2
2018-Jun-21 23:00N 42°22' W 071°03'0 0.4
2018-Jun-21 22:30N 42°22' W 071°03'0 0.3
2018-Jun-21 22:00N 42°22' W 071°03'3 5.7
2018-Jun-21 21:30N 42°20' W 070°59'3 5.9
2018-Jun-21 21:00N 42°19' W 070°56'3 6.4
2018-Jun-21 20:30N 42°20' W 070°60'3 5.3
2018-Jun-21 20:00N 42°22' W 071°03'1 1.9
2018-Jun-21 19:31N 42°21' W 071°02'5 9.7
2018-Jun-21 19:00N 42°19' W 070°56'2 4.5
2018-Jun-21 18:31N 42°20' W 070°59'4 7.2
2018-Jun-21 18:00N 42°22' W 071°03'1 2.5
2018-Jun-21 17:30N 42°21' W 071°02'5 9.1
2018-Jun-21 17:00N 42°19' W 070°56'2 4.1
2018-Jun-21 16:30N 42°20' W 070°58'4 7.6
2018-Jun-21 16:00N 42°22' W 071°03'3 5.2
2018-Jun-21 15:30N 42°20' W 070°60'3 6.4
2018-Jun-21 15:01N 42°19' W 070°56'4 7.5
2018-Jun-21 14:30N 42°21' W 071°01'2 4.1
2018-Jun-21 14:01N 42°22' W 071°03'0 0.6
2018-Jun-21 13:30N 42°22' W 071°03'0 0.7
2018-Jun-21 13:00N 42°22' W 071°03'0 0.0
2018-Jun-21 01:38N 42°22' W 071°03'0 0.0
2018-Jun-21 01:30N 42°22' W 071°03'0 0.1
2018-Jun-21 01:00N 42°22' W 071°03'0 0.6
2018-Jun-21 00:30N 42°22' W 071°03'2 4.6
2018-Jun-21 00:00N 42°21' W 071°00'1 1.2
2018-Jun-20 23:30N 42°20' W 070°60'3 5.6
2018-Jun-20 23:01N 42°22' W 071°03'0 0.0
2018-Jun-20 22:30N 42°22' W 071°03'0 0.0
2018-Jun-20 22:00N 42°22' W 071°03'1 2.4
2018-Jun-20 21:31N 42°21' W 071°02'5 9.2
2018-Jun-20 21:00N 42°19' W 070°56'2 3.9
2018-Jun-20 20:30N 42°20' W 070°58'4 7.6
2018-Jun-20 20:00N 42°22' W 071°03'1 2.4
2018-Jun-20 19:30N 42°21' W 071°02'5 9.3
2018-Jun-20 19:00N 42°19' W 070°56'2 3.7
2018-Jun-20 18:30N 42°20' W 070°58'4 8.0
2018-Jun-20 18:01N 42°22' W 071°03'1 2.4
2018-Jun-20 17:30N 42°21' W 071°02'5 9.3
2018-Jun-20 17:00N 42°19' W 070°56'2 4.3
2018-Jun-20 16:30N 42°20' W 070°58'4 7.3
2018-Jun-20 16:00N 42°22' W 071°03'2 3.9
2018-Jun-20 15:30N 42°21' W 071°01'4 7.8
2018-Jun-20 15:00N 42°19' W 070°56'3 5.1
2018-Jun-20 14:30N 42°20' W 070°59'3 6.6
2018-Jun-20 14:00N 42°22' W 071°03'0 0.1
2018-Jun-20 13:31N 42°22' W 071°03'0 0.0
2018-Jun-20 13:01N 42°22' W 071°03'0 0.0
2018-Jun-20 12:31N 42°22' W 071°03'0 0.0
2018-Jun-20 01:44N 42°22' W 071°03'0 0.0
2018-Jun-20 01:30N 42°22' W 071°03'0 0.1
2018-Jun-20 01:00N 42°22' W 071°03'0 0.5
2018-Jun-20 00:30N 42°22' W 071°03'1 2.5
2018-Jun-20 00:01N 42°21' W 071°01'3 5.2
2018-Jun-19 23:30N 42°20' W 070°58'4 7.8
2018-Jun-19 23:00N 42°22' W 071°03'0 0.0
2018-Jun-19 22:31N 42°22' W 071°03'0 0.0
2018-Jun-19 22:01N 42°22' W 071°03'2 3.1
2018-Jun-19 21:30N 42°21' W 071°01'4 8.6
2018-Jun-19 21:00N 42°19' W 070°56'2 3.9
2018-Jun-19 20:30N 42°20' W 070°58'4 7.7
2018-Jun-19 20:00N 42°22' W 071°03'1 2.3
2018-Jun-19 19:30N 42°21' W 071°02'5 9.4
2018-Jun-19 19:00N 42°19' W 070°56'2 4.0
2018-Jun-19 18:30N 42°20' W 070°58'4 7.7
2018-Jun-19 18:00N 42°22' W 071°03'2 4.2
2018-Jun-19 17:30N 42°21' W 071°00'4 7.4
2018-Jun-19 17:00N 42°19' W 070°56'3 5.5
2018-Jun-19 16:30N 42°20' W 070°59'3 5.7
2018-Jun-19 16:00N 42°22' W 071°03'510.4
2018-Jun-19 15:30N 42°19' W 070°56'0 0.7
2018-Jun-19 15:01N 42°19' W 070°56'4 8.7
2018-Jun-19 14:30N 42°21' W 071°01'1 2.8
2018-Jun-19 14:00N 42°22' W 071°03'0 0.6
2018-Jun-19 13:30N 42°22' W 071°03'0 0.7
2018-Jun-19 13:00N 42°22' W 071°02'0 0.0
2018-Jun-19 12:31N 42°22' W 071°02'1 0.1
2018-Jun-19 01:38N 42°22' W 071°03'0 0.9
2018-Jun-19 01:31N 42°22' W 071°03'0 0.3
2018-Jun-19 01:00N 42°22' W 071°03'0 0.7
2018-Jun-19 00:31N 42°22' W 071°03'2 3.5
2018-Jun-19 00:01N 42°21' W 071°01'1 1.9
2018-Jun-18 23:30N 42°20' W 071°00'3 5.2
2018-Jun-18 23:00N 42°22' W 071°03'0 0.0
2018-Jun-18 22:30N 42°22' W 071°03'0 0.0
2018-Jun-18 22:01N 42°22' W 071°03'1 1.9
2018-Jun-18 21:30N 42°21' W 071°02'5 9.8
2018-Jun-18 21:01N 42°19' W 070°56'2 3.3
2018-Jun-18 20:30N 42°20' W 070°58'4 8.3
2018-Jun-18 20:00N 42°22' W 071°03'1 2.5
2018-Jun-18 19:30N 42°21' W 071°01'5 9.1
2018-Jun-18 19:00N 42°19' W 070°56'2 4.0
2018-Jun-18 18:31N 42°20' W 070°58'4 7.7
2018-Jun-18 18:00N 42°22' W 071°03'1 2.2
2018-Jun-18 17:31N 42°21' W 071°02'5 9.4
2018-Jun-18 17:00N 42°19' W 070°56'2 3.9
2018-Jun-18 16:30N 42°20' W 070°58'4 7.8
2018-Jun-18 16:00N 42°22' W 071°03'2 3.9
2018-Jun-18 15:30N 42°21' W 071°01'4 7.7
2018-Jun-18 15:00N 42°19' W 070°56'3 6.3
2018-Jun-18 14:29N 42°20' W 070°60'3 5.3
2018-Jun-18 14:00N 42°22' W 071°03'0 0.0
2018-Jun-18 13:30N 42°22' W 071°03'0 0.0
2018-Jun-18 13:00N 42°22' W 071°03'0 0.0
2018-Jun-18 01:33N 42°22' W 071°03'0 3.2
2018-Jun-18 01:30N 42°22' W 071°03'0 0.0
2018-Jun-18 01:00N 42°22' W 071°03'0 0.5
2018-Jun-18 00:31N 42°22' W 071°03'1 2.5
2018-Jun-18 00:00N 42°21' W 071°01'2 3.2
2018-Jun-17 23:30N 42°20' W 070°60'3 5.9
2018-Jun-17 23:01N 42°22' W 071°03'0 0.0
2018-Jun-17 22:30N 42°22' W 071°03'0 0.0
2018-Jun-17 22:00N 42°22' W 071°03'1 2.5
2018-Jun-17 21:30N 42°21' W 071°02'5 9.2
2018-Jun-17 21:00N 42°19' W 070°56'3 5.1
2018-Jun-17 20:31N 42°20' W 070°59'3 6.6
2018-Jun-17 20:01N 42°22' W 071°03'2 3.0
2018-Jun-17 19:30N 42°21' W 071°01'4 8.6
2018-Jun-17 19:00N 42°19' W 070°56'2 3.8
2018-Jun-17 18:31N 42°20' W 070°58'4 7.9
2018-Jun-17 18:01N 42°22' W 071°03'2 3.7
2018-Jun-17 17:31N 42°21' W 071°01'4 7.9
2018-Jun-17 17:00N 42°19' W 070°56'3 5.5
2018-Jun-17 16:30N 42°20' W 070°59'3 6.2
2018-Jun-17 16:01N 42°22' W 071°03'2 4.4
2018-Jun-17 15:30N 42°21' W 071°00'4 7.4
2018-Jun-17 15:01N 42°19' W 070°56'2 5.0
2018-Jun-17 14:30N 42°20' W 070°59'3 6.7
2018-Jun-17 14:00N 42°22' W 071°03'0 0.0
2018-Jun-17 13:30N 42°22' W 071°03'0 0.0
2018-Jun-17 01:53N 42°22' W 071°03'0 0.2
2018-Jun-17 01:30N 42°22' W 071°03'0 0.2
2018-Jun-17 01:00N 42°22' W 071°03'0 0.8
2018-Jun-17 00:30N 42°22' W 071°03'3 5.4
2018-Jun-17 00:00N 42°21' W 070°60'0 1.0
2018-Jun-16 23:31N 42°20' W 071°01'2 4.1
2018-Jun-16 23:00N 42°22' W 071°03'0 0.0
2018-Jun-16 22:30N 42°22' W 071°03'0 0.0
2018-Jun-16 22:00N 42°22' W 071°03'1 2.9
2018-Jun-16 21:30N 42°21' W 071°01'4 8.7
2018-Jun-16 21:00N 42°19' W 070°56'2 3.2
2018-Jun-16 20:30N 42°20' W 070°58'4 8.4
2018-Jun-16 20:00N 42°22' W 071°03'1 2.8
2018-Jun-16 19:30N 42°21' W 071°01'4 8.9
2018-Jun-16 19:00N 42°19' W 070°56'2 3.7
2018-Jun-16 18:30N 42°20' W 070°58'4 7.9
2018-Jun-16 18:00N 42°22' W 071°03'2 3.9
2018-Jun-16 17:30N 42°21' W 071°01'4 7.8
2018-Jun-16 17:00N 42°19' W 070°56'2 4.8
2018-Jun-16 16:30N 42°20' W 070°59'3 6.9
2018-Jun-16 16:00N 42°22' W 071°03'2 3.3
2018-Jun-16 15:30N 42°21' W 071°01'4 8.4
2018-Jun-16 15:00N 42°19' W 070°56'2 3.8
2018-Jun-16 14:30N 42°20' W 070°58'4 7.7
2018-Jun-16 14:00N 42°22' W 071°03'0 0.6
2018-Jun-16 13:31N 42°22' W 071°03'0 0.0
2018-Jun-16 00:56N 42°22' W 071°03'0 0.0
2018-Jun-16 00:31N 42°22' W 071°03'1 1.7
2018-Jun-16 00:00N 42°21' W 071°02'2 4.0
2018-Jun-15 23:30N 42°20' W 070°60'3 5.8
2018-Jun-15 23:00N 42°22' W 071°03'0 0.0
2018-Jun-15 22:30N 42°22' W 071°03'0 0.0
2018-Jun-15 22:00N 42°22' W 071°03'2 3.3
2018-Jun-15 21:30N 42°21' W 071°01'4 8.4
2018-Jun-15 21:00N 42°19' W 070°56'2 4.3
2018-Jun-15 20:31N 42°20' W 070°58'4 7.4
2018-Jun-15 20:00N 42°22' W 071°03'1 3.0
2018-Jun-15 19:30N 42°21' W 071°01'4 8.6
2018-Jun-15 19:00N 42°19' W 070°56'2 3.4
2018-Jun-15 18:30N 42°20' W 070°58'4 8.3
2018-Jun-15 18:00N 42°22' W 071°03'1 2.0
2018-Jun-15 17:31N 42°21' W 071°02'5 9.6
2018-Jun-15 17:00N 42°19' W 070°56'2 4.1
2018-Jun-15 16:31N 42°20' W 070°58'4 7.5
2018-Jun-15 16:00N 42°22' W 071°03'2 4.0
2018-Jun-15 15:30N 42°21' W 071°01'4 7.7
2018-Jun-15 15:00N 42°19' W 070°56'3 5.6
2018-Jun-15 14:30N 42°20' W 070°59'3 6.0
2018-Jun-15 14:00N 42°22' W 071°03'0 0.0
2018-Jun-15 13:30N 42°22' W 071°03'0 0.0
2018-Jun-15 01:35N 42°22' W 071°03'0 0.1
2018-Jun-15 01:31N 42°22' W 071°03'0 0.1
2018-Jun-15 01:00N 42°22' W 071°03'0 0.6
2018-Jun-15 00:30N 42°22' W 071°03'  

Dump ship's entire track history